To NAV CANADA Home Page Login to a new session Search on AWWS site Feedback and Comments Disclaimer Vers la page française équivalente Tips FAQ What's new on the site To the Forecasts and Observations / NOTAM section To "File a Flight Plan" website Publications and other links Update of the User's profile FIC Telephone Numbers My Weather Data Folder Route Weather Data Regional Weather Data Local Weather Data To the Forecasts and Observations / NOTAM section
Request Generated 06/26/2017 at 22:31:21 UTC . Weather information available at that time is displayed.

METAR/TAF

COLD LAKE/GROUP CAPTAIN R.W. MCNAIR/AB    

METAR CYOD 262200Z 13012KT 15SM BKN120 OVC250 22/11 A2974 RMK AC5CI3 SLP076=
METAR CYOD 262100Z 14012G21KT 15SM BKN140 OVC250 21/09 A2977 RMK AC5CI3 SLP085=
METAR CYOD 262000Z 12014G20KT 15SM FEW140 OVC250 22/09 A2978 RMK AC2CI6 SLP089=

TAF CYOD 262030Z 2621/2718 13015G25KT P6SM FEW140 OVC250
FM262200 13015G25KT P6SM OVC150
BECMG 2700/2702 11010KT
FM270200 11010KT P6SM FEW120
FM270400 11010KT P6SM -SHRA BKN100 PROB30 2706/2711 VRB25G40KT
2SM +TSRAGR BR BKN080CB
FM271100 26008KT P6SM FEW020 BKN080
FM271300 28012G22KT P6SM BKN030
RMK NXT FCST BY 270000Z=
Your time UTC time
Weather data provided by Environment Canada and NAV CANADA